Time;durP1;ratioP1;P1;durP2;ratioP2;P2;SDS_P1;SDS_P2;PMS_P1;PMS_P2;Temp;Humidity;BMP_temperature;BMP_pressure;BME280_temperature;BME280_humidity;BME280_pressure;Samples;Min_cycle;Max_cycle;Signal;HPM_P1;HPM_P2
2022/08/16 00:00:16;;;;;;;3.73;3.43;;;16.20;99.90;;;;;;494026;241;28792;-69
2022/08/16 00:02:17;;;;;;;3.73;3.50;;;16.20;99.90;;;;;;494013;241;28917;-71
2022/08/16 00:04:18;;;;;;;3.53;3.33;;;16.20;99.90;;;;;;494015;241;28813;-69
2022/08/16 00:06:20;;;;;;;3.50;3.30;;;16.20;99.90;;;;;;493947;241;28961;-69
2022/08/16 00:08:21;;;;;;;3.80;3.60;;;16.20;99.90;;;;;;494025;241;28802;-69
2022/08/16 00:10:22;;;;;;;3.70;3.50;;;16.10;99.90;;;;;;494078;241;28848;-69
2022/08/16 00:12:23;;;;;;;3.63;3.40;;;16.00;99.90;;;;;;493804;241;29333;-70
2022/08/16 00:14:25;;;;;;;3.30;3.10;;;16.00;99.90;;;;;;494033;241;29265;-69
2022/08/16 00:16:26;;;;;;;4.37;3.87;;;16.10;99.90;;;;;;493931;241;29466;-68
2022/08/16 00:18:27;;;;;;;3.43;3.23;;;16.10;99.90;;;;;;494018;241;29266;-69
2022/08/16 00:20:28;;;;;;;3.30;3.10;;;16.10;99.90;;;;;;494057;241;28792;-69
2022/08/16 00:22:30;;;;;;;3.30;3.10;;;16.20;99.90;;;;;;494029;241;28849;-73
2022/08/16 00:24:32;;;;;;;3.60;3.40;;;16.20;99.90;;;;;;494028;241;28793;-69
2022/08/16 00:26:32;;;;;;;3.50;3.30;;;16.20;99.90;;;;;;493878;241;28856;-70
2022/08/16 00:28:33;;;;;;;3.63;3.40;;;16.20;99.90;;;;;;494006;241;28809;-69
2022/08/16 00:30:35;;;;;;;3.90;3.60;;;16.20;99.90;;;;;;494052;241;28858;-69
2022/08/16 00:32:36;;;;;;;3.50;3.30;;;16.20;99.90;;;;;;494003;241;28853;-72
2022/08/16 00:34:37;;;;;;;4.37;3.97;;;16.20;99.90;;;;;;494018;241;28896;-68
2022/08/16 00:36:38;;;;;;;3.70;3.47;;;16.30;99.90;;;;;;493861;241;28864;-70
2022/08/16 00:38:40;;;;;;;3.60;3.40;;;16.30;99.90;;;;;;494018;241;29306;-68
2022/08/16 00:40:41;;;;;;;3.93;3.63;;;16.30;99.90;;;;;;494031;241;29249;-69
2022/08/16 00:42:44;;;;;;;3.80;3.50;;;16.40;99.90;;;;;;494045;241;29410;-71
2022/08/16 00:44:43;;;;;;;4.30;4.00;;;16.30;99.90;;;;;;493878;241;28968;-69
2022/08/16 00:46:45;;;;;;;4.00;3.57;;;16.20;99.90;;;;;;493928;241;28884;-70
2022/08/16 00:48:46;;;;;;;3.90;3.60;;;16.20;99.90;;;;;;493997;241;28794;-68
2022/08/16 00:50:47;;;;;;;4.30;4.00;;;16.20;99.90;;;;;;493987;241;28798;-69
2022/08/16 00:52:48;;;;;;;3.43;3.23;;;16.20;99.90;;;;;;494014;241;28903;-72
2022/08/16 00:54:50;;;;;;;4.20;3.87;;;16.20;99.90;;;;;;494023;241;28849;-68
2022/08/16 00:56:51;;;;;;;4.77;4.37;;;16.20;99.90;;;;;;493937;241;28863;-68
2022/08/16 00:58:52;;;;;;;4.07;3.77;;;16.10;99.90;;;;;;493987;241;28873;-69
2022/08/16 01:00:53;;;;;;;5.10;4.60;;;16.00;99.90;;;;;;494017;241;28834;-68
2022/08/16 01:02:55;;;;;;;7.17;5.17;;;15.90;99.90;;;;;;494015;241;29477;-71
2022/08/16 01:04:56;;;;;;;5.37;4.90;;;15.90;99.90;;;;;;494024;241;29313;-68
2022/08/16 01:06:57;;;;;;;6.23;5.63;;;15.90;99.90;;;;;;493941;241;29311;-70
2022/08/16 01:08:58;;;;;;;5.83;5.33;;;15.90;99.90;;;;;;493958;241;28802;-69
2022/08/16 01:11:00;;;;;;;5.33;4.83;;;15.90;99.90;;;;;;494013;241;28839;-68
2022/08/16 01:13:01;;;;;;;4.77;4.40;;;15.90;99.90;;;;;;494039;241;28961;-71
2022/08/16 01:15:02;;;;;;;4.63;3.87;;;16.00;99.90;;;;;;494005;241;28797;-69
2022/08/16 01:17:03;;;;;;;5.00;4.60;;;16.10;99.90;;;;;;493935;241;28827;-70
2022/08/16 01:19:05;;;;;;;5.30;4.90;;;16.00;99.90;;;;;;494030;241;28902;-69
2022/08/16 01:21:06;;;;;;;4.97;4.57;;;16.00;99.90;;;;;;494012;241;28971;-69
2022/08/16 01:23:07;;;;;;;5.03;4.63;;;16.00;99.90;;;;;;494051;241;29318;-71
2022/08/16 01:25:08;;;;;;;5.70;5.20;;;15.90;99.90;;;;;;494029;241;28920;-68
2022/08/16 01:27:10;;;;;;;6.77;5.67;;;15.90;99.90;;;;;;493940;241;29300;-68
2022/08/16 01:29:11;;;;;;;5.33;4.83;;;15.90;99.90;;;;;;494007;241;29349;-68
2022/08/16 01:31:12;;;;;;;6.57;5.13;;;15.90;99.90;;;;;;493993;241;29397;-69
2022/08/16 01:33:13;;;;;;;5.47;5.07;;;15.90;99.90;;;;;;493985;241;29537;-69
2022/08/16 01:35:15;;;;;;;5.97;5.13;;;15.90;99.90;;;;;;494067;241;28798;-69
2022/08/16 01:37:16;;;;;;;5.57;5.07;;;15.90;99.90;;;;;;493853;241;28917;-70
2022/08/16 01:39:17;;;;;;;5.27;4.87;;;16.00;99.90;;;;;;494030;241;28800;-69
2022/08/16 01:41:18;;;;;;;4.80;4.40;;;16.00;99.90;;;;;;494002;241;28853;-69
2022/08/16 01:43:20;;;;;;;4.50;4.20;;;16.00;99.90;;;;;;493996;241;28828;-68
2022/08/16 01:45:21;;;;;;;4.90;4.50;;;16.00;99.90;;;;;;494050;241;28809;-68
2022/08/16 01:47:22;;;;;;;5.20;4.73;;;16.00;99.90;;;;;;493982;241;28948;-70
2022/08/16 01:49:24;;;;;;;4.50;4.20;;;16.10;99.90;;;;;;494048;241;28880;-69
2022/08/16 01:51:25;;;;;;;4.43;4.07;;;16.10;99.90;;;;;;494016;241;28837;-69
2022/08/16 01:53:26;;;;;;;4.97;4.47;;;16.00;99.90;;;;;;494010;241;30041;-68
2022/08/16 01:55:27;;;;;;;4.70;4.40;;;16.00;99.90;;;;;;494030;241;29369;-68
2022/08/16 01:57:28;;;;;;;4.73;4.33;;;15.90;99.90;;;;;;493919;241;29299;-72
2022/08/16 01:59:30;;;;;;;4.63;4.23;;;15.90;99.90;;;;;;493856;241;28920;-69
2022/08/16 02:01:31;;;;;;;4.97;4.57;;;15.80;99.90;;;;;;494026;241;28819;-70
2022/08/16 02:03:32;;;;;;;4.50;4.10;;;15.80;99.90;;;;;;494045;241;28848;-69
2022/08/16 02:05:34;;;;;;;4.97;4.57;;;15.80;99.90;;;;;;494036;241;28876;-69
2022/08/16 02:07:35;;;;;;;4.60;4.20;;;15.80;99.90;;;;;;493964;241;28905;-70
2022/08/16 02:09:36;;;;;;;5.53;5.00;;;15.80;99.90;;;;;;494037;241;28833;-69
2022/08/16 02:11:37;;;;;;;5.67;5.20;;;15.80;99.90;;;;;;494009;241;28860;-69
2022/08/16 02:13:42;;;;;;;4.80;4.40;;;15.70;99.90;;;;;;494038;241;29488;-72
2022/08/16 02:15:40;;;;;;;5.20;4.80;;;15.70;99.90;;;;;;493819;241;29312;-70
2022/08/16 02:17:42;;;;;;;4.80;4.40;;;15.70;99.90;;;;;;493963;241;29406;-70
2022/08/16 02:19:42;;;;;;;5.00;4.60;;;15.70;99.90;;;;;;494036;241;29263;-68
2022/08/16 02:21:44;;;;;;;5.20;4.80;;;15.70;99.90;;;;;;493891;241;28828;-69
2022/08/16 02:23:45;;;;;;;4.90;4.50;;;15.80;99.90;;;;;;494047;241;28919;-68
2022/08/16 02:25:46;;;;;;;5.00;4.53;;;15.80;99.90;;;;;;494027;241;28868;-69
2022/08/16 02:27:47;;;;;;;5.40;5.00;;;15.80;99.90;;;;;;493957;241;28874;-70
2022/08/16 02:29:49;;;;;;;5.80;5.30;;;15.70;99.90;;;;;;493979;241;28889;-69
2022/08/16 02:31:50;;;;;;;6.93;5.47;;;15.60;99.90;;;;;;493978;241;28975;-69
2022/08/16 02:33:51;;;;;;;5.50;5.10;;;15.60;99.90;;;;;;494037;237;28851;-69
2022/08/16 02:35:52;;;;;;;5.87;5.27;;;15.60;99.90;;;;;;493915;241;28857;-67
2022/08/16 02:37:54;;;;;;;5.80;5.40;;;15.70;99.90;;;;;;493947;241;28825;-70
2022/08/16 02:39:55;;;;;;;7.70;5.27;;;15.70;99.90;;;;;;493981;241;28951;-68
2022/08/16 02:41:56;;;;;;;5.90;5.40;;;15.80;99.90;;;;;;493962;240;28930;-69
2022/08/16 02:43:58;;;;;;;5.40;5.00;;;15.80;99.90;;;;;;494023;241;29212;-68
2022/08/16 02:45:59;;;;;;;5.40;5.00;;;15.80;99.90;;;;;;493974;241;28884;-77
2022/08/16 02:48:00;;;;;;;4.97;4.57;;;15.70;99.90;;;;;;494005;241;29326;-71
2022/08/16 02:50:01;;;;;;;5.83;5.37;;;15.70;99.90;;;;;;494031;241;29352;-68
2022/08/16 02:52:02;;;;;;;5.63;5.13;;;15.70;99.90;;;;;;494010;241;29309;-71
2022/08/16 02:54:04;;;;;;;5.80;5.30;;;15.60;99.90;;;;;;494034;241;28892;-68
2022/08/16 02:56:05;;;;;;;7.00;4.90;;;15.60;99.90;;;;;;494011;241;28865;-69
2022/08/16 02:58:06;;;;;;;5.13;4.73;;;15.60;99.90;;;;;;494018;241;28849;-71
2022/08/16 03:00:11;;;;;;;4.87;4.47;;;15.60;99.90;;;;;;494029;241;28922;-69
2022/08/16 03:02:12;;;;;;;5.33;4.93;;;15.50;99.90;;;;;;493771;241;28829;-69
2022/08/16 03:04:13;;;;;;;4.73;4.33;;;15.60;99.90;;;;;;493963;241;28833;-69
2022/08/16 03:06:18;;;;;;;4.60;4.20;;;15.50;99.90;;;;;;493974;241;28932;-72
2022/08/16 03:08:16;;;;;;;4.80;4.40;;;15.50;99.90;;;;;;493772;241;28905;-69
2022/08/16 03:10:17;;;;;;;4.80;4.40;;;15.40;99.90;;;;;;493973;241;28878;-69
2022/08/16 03:12:18;;;;;;;5.00;4.60;;;15.40;99.90;;;;;;494015;241;28818;-68
2022/08/16 03:14:19;;;;;;;4.80;4.33;;;15.40;99.90;;;;;;494037;241;28839;-69
2022/08/16 03:16:21;;;;;;;4.90;4.50;;;15.30;99.90;;;;;;494000;241;28867;-71
2022/08/16 03:18:22;;;;;;;5.97;4.90;;;15.30;99.90;;;;;;494011;241;29321;-69
2022/08/16 03:20:23;;;;;;;5.17;4.77;;;15.30;99.90;;;;;;494033;241;29341;-69
2022/08/16 03:22:24;;;;;;;4.73;4.33;;;15.30;99.90;;;;;;494018;241;29245;-69
2022/08/16 03:24:27;;;;;;;5.40;5.00;;;15.30;99.90;;;;;;493933;241;29465;-69
2022/08/16 03:26:27;;;;;;;4.63;4.33;;;15.30;99.90;;;;;;493951;241;28955;-72
2022/08/16 03:28:28;;;;;;;5.13;4.73;;;15.30;99.90;;;;;;494006;241;28781;-69
2022/08/16 03:30:29;;;;;;;5.70;5.20;;;15.30;99.90;;;;;;494032;241;28844;-69
2022/08/16 03:32:31;;;;;;;4.80;4.40;;;15.20;99.90;;;;;;494012;241;28817;-69
2022/08/16 03:34:35;;;;;;;5.37;4.87;;;15.30;99.90;;;;;;494023;241;28840;-69
2022/08/16 03:36:36;;;;;;;4.60;4.30;;;15.30;99.90;;;;;;493885;241;28815;-68
2022/08/16 03:38:37;;;;;;;5.20;4.80;;;15.30;99.90;;;;;;494030;241;28843;-70
2022/08/16 03:40:39;;;;;;;4.97;4.57;;;15.30;99.90;;;;;;494053;241;28801;-68
2022/08/16 03:42:40;;;;;;;4.40;4.10;;;15.30;99.90;;;;;;493998;241;28935;-69
2022/08/16 03:44:42;;;;;;;5.20;4.80;;;15.30;99.90;;;;;;494023;241;29500;-69
2022/08/16 03:46:42;;;;;;;5.20;4.70;;;15.30;99.90;;;;;;493920;241;29325;-69
2022/08/16 03:48:44;;;;;;;4.83;4.43;;;15.30;99.90;;;;;;494024;241;29361;-70
2022/08/16 03:50:45;;;;;;;5.30;4.80;;;15.20;99.90;;;;;;494007;241;29344;-68
2022/08/16 03:52:46;;;;;;;5.00;4.60;;;15.20;99.90;;;;;;494004;241;28868;-68
2022/08/16 03:54:47;;;;;;;5.10;4.70;;;15.20;99.90;;;;;;493996;241;28856;-69
2022/08/16 03:56:49;;;;;;;4.63;4.23;;;15.20;99.90;;;;;;493728;241;28816;-69
2022/08/16 03:58:50;;;;;;;5.23;4.83;;;15.20;99.90;;;;;;493460;241;28935;-70
2022/08/16 04:00:54;;;;;;;5.33;4.83;;;15.20;99.90;;;;;;493619;241;28890;-69
2022/08/16 04:02:52;;;;;;;5.20;4.80;;;15.20;99.90;;;;;;493827;241;28848;-69
2022/08/16 04:04:54;;;;;;;4.67;4.37;;;15.20;99.90;;;;;;494049;241;28938;-72
2022/08/16 04:06:55;;;;;;;5.13;4.73;;;15.20;99.90;;;;;;494007;241;28810;-69
2022/08/16 04:08:56;;;;;;;5.10;4.70;;;15.20;99.90;;;;;;494063;241;28907;-70
2022/08/16 04:10:57;;;;;;;5.27;4.87;;;15.20;99.90;;;;;;494047;241;29320;-69
2022/08/16 04:12:59;;;;;;;4.93;4.53;;;15.20;99.90;;;;;;494030;241;29365;-69
2022/08/16 04:15:01;;;;;;;5.30;4.90;;;15.30;99.90;;;;;;494030;241;29294;-69
2022/08/16 04:17:01;;;;;;;5.43;5.03;;;15.20;99.90;;;;;;493913;241;28818;-69
2022/08/16 04:19:03;;;;;;;5.90;4.93;;;15.20;99.90;;;;;;494027;241;28832;-72
2022/08/16 04:21:04;;;;;;;5.07;4.67;;;15.20;99.90;;;;;;494017;241;28815;-69
2022/08/16 04:23:06;;;;;;;5.10;4.70;;;15.20;99.90;;;;;;494006;241;28836;-69
2022/08/16 04:25:06;;;;;;;5.00;4.60;;;15.20;99.90;;;;;;493898;241;28888;-69
2022/08/16 04:27:07;;;;;;;5.40;4.90;;;15.20;99.90;;;;;;493964;241;28889;-69
2022/08/16 04:29:09;;;;;;;5.60;5.10;;;15.20;99.90;;;;;;494031;241;28849;-69
2022/08/16 04:31:10;;;;;;;5.47;5.00;;;15.20;99.90;;;;;;493983;241;28943;-68
2022/08/16 04:33:11;;;;;;;5.23;4.83;;;15.10;99.90;;;;;;494004;241;29003;-70
2022/08/16 04:35:12;;;;;;;5.13;4.73;;;15.10;99.90;;;;;;494024;241;29518;-69
2022/08/16 04:37:14;;;;;;;5.17;4.67;;;15.10;99.90;;;;;;493838;241;29374;-69
2022/08/16 04:39:15;;;;;;;5.67;5.10;;;15.00;99.90;;;;;;494022;241;29411;-70
2022/08/16 04:41:16;;;;;;;5.37;4.97;;;15.00;99.90;;;;;;493999;241;29390;-69
2022/08/16 04:43:17;;;;;;;4.80;4.50;;;15.10;99.90;;;;;;494013;241;28936;-69
2022/08/16 04:45:19;;;;;;;6.03;5.53;;;15.10;99.90;;;;;;494011;241;28836;-69
2022/08/16 04:47:20;;;;;;;5.03;4.63;;;15.10;99.90;;;;;;493955;241;28941;-69
2022/08/16 04:49:21;;;;;;;5.30;4.90;;;15.10;99.90;;;;;;494021;241;28880;-71
2022/08/16 04:51:22;;;;;;;5.03;4.70;;;15.10;99.90;;;;;;494005;241;28955;-69
2022/08/16 04:53:24;;;;;;;4.77;4.47;;;15.10;99.90;;;;;;493974;241;28959;-70
2022/08/16 04:55:25;;;;;;;5.60;5.13;;;15.10;99.90;;;;;;493990;241;29202;-68
2022/08/16 04:57:26;;;;;;;4.80;4.40;;;15.20;99.90;;;;;;493950;241;28802;-70
2022/08/16 04:59:27;;;;;;;6.43;5.17;;;15.30;99.90;;;;;;494011;241;29408;-70
2022/08/16 05:01:29;;;;;;;5.43;5.03;;;15.30;99.90;;;;;;494014;241;29242;-68
2022/08/16 05:03:30;;;;;;;5.30;4.90;;;15.30;99.90;;;;;;493999;241;29320;-69
2022/08/16 05:05:31;;;;;;;5.53;5.13;;;15.40;99.90;;;;;;494011;241;29480;-69
2022/08/16 05:07:32;;;;;;;4.97;4.57;;;15.40;99.90;;;;;;493947;241;28823;-69
2022/08/16 05:09:34;;;;;;;5.20;4.80;;;15.40;99.90;;;;;;494005;241;28845;-70
2022/08/16 05:11:35;;;;;;;5.40;4.93;;;15.30;99.90;;;;;;494031;241;28811;-69
2022/08/16 05:13:36;;;;;;;6.07;5.00;;;15.30;99.90;;;;;;494030;241;28853;-69
2022/08/16 05:15:37;;;;;;;5.03;4.73;;;15.40;99.90;;;;;;494033;241;28832;-69
2022/08/16 05:17:39;;;;;;;5.80;5.40;;;15.40;99.90;;;;;;494008;241;28915;-69
2022/08/16 05:19:40;;;;;;;5.53;5.07;;;15.30;99.90;;;;;;494024;241;28906;-69
2022/08/16 05:21:41;;;;;;;5.60;5.20;;;15.30;99.90;;;;;;494019;241;28805;-68
2022/08/16 05:23:42;;;;;;;4.70;4.40;;;15.20;99.90;;;;;;493992;241;28942;-69
2022/08/16 05:25:44;;;;;;;5.10;4.70;;;15.30;99.90;;;;;;494033;237;29369;-69
2022/08/16 05:27:45;;;;;;;5.70;5.20;;;15.30;99.90;;;;;;494006;241;29371;-69
2022/08/16 05:29:46;;;;;;;5.90;5.40;;;15.30;99.90;;;;;;494063;237;29414;-70
2022/08/16 05:31:47;;;;;;;5.43;5.03;;;15.30;99.90;;;;;;494088;241;28793;-69
2022/08/16 05:33:49;;;;;;;5.20;4.80;;;15.40;99.90;;;;;;494059;241;28885;-70
2022/08/16 05:35:50;;;;;;;5.63;5.13;;;15.40;99.90;;;;;;493974;241;28836;-69
2022/08/16 05:37:51;;;;;;;5.80;5.40;;;15.50;99.90;;;;;;493981;241;28827;-69
2022/08/16 05:39:52;;;;;;;5.30;4.90;;;15.50;99.90;;;;;;494040;241;28977;-70
2022/08/16 05:41:54;;;;;;;5.87;5.37;;;15.60;99.90;;;;;;494052;241;28895;-69
2022/08/16 05:43:55;;;;;;;6.40;5.80;;;15.70;99.90;;;;;;494043;241;28869;-69
2022/08/16 05:45:56;;;;;;;7.47;6.60;;;15.80;99.90;;;;;;494053;241;28833;-68
2022/08/16 05:47:57;;;;;;;7.83;7.13;;;15.80;99.90;;;;;;493995;241;28802;-69
2022/08/16 05:49:59;;;;;;;6.80;6.20;;;15.80;99.90;;;;;;494057;241;29303;-71
2022/08/16 05:52:00;;;;;;;6.60;6.10;;;16.00;99.90;;;;;;494049;241;29347;-69
2022/08/16 05:54:01;;;;;;;6.27;5.67;;;16.20;99.90;;;;;;494011;241;29436;-69
2022/08/16 05:56:02;;;;;;;6.10;5.60;;;16.50;99.90;;;;;;493978;241;28836;-69
2022/08/16 05:58:04;;;;;;;6.10;5.60;;;16.50;99.90;;;;;;494021;241;28797;-69
2022/08/16 06:00:06;;;;;;;5.87;5.37;;;16.60;99.90;;;;;;494026;241;28932;-71
2022/08/16 06:02:06;;;;;;;6.30;5.80;;;16.60;99.90;;;;;;493966;241;28805;-69
2022/08/16 06:04:07;;;;;;;6.10;5.60;;;16.70;99.90;;;;;;494021;241;28849;-70
2022/08/16 06:06:09;;;;;;;5.47;5.07;;;16.80;99.90;;;;;;493950;241;28841;-69
2022/08/16 06:08:10;;;;;;;5.23;4.83;;;16.90;99.90;;;;;;494003;241;28877;-69
2022/08/16 06:10:11;;;;;;;6.47;5.90;;;16.90;99.90;;;;;;494047;241;28860;-69
2022/08/16 06:12:12;;;;;;;5.33;4.93;;;17.00;99.90;;;;;;494028;241;28798;-69
2022/08/16 06:14:14;;;;;;;5.60;5.20;;;17.10;99.90;;;;;;494032;241;29309;-70
2022/08/16 06:16:15;;;;;;;5.67;5.27;;;17.10;99.90;;;;;;493933;241;30004;-69
2022/08/16 06:18:16;;;;;;;5.23;4.83;;;17.20;99.90;;;;;;494043;241;29377;-70
2022/08/16 06:20:17;;;;;;;5.63;5.23;;;17.30;99.90;;;;;;494043;241;28845;-71
2022/08/16 06:22:19;;;;;;;5.53;5.13;;;17.30;99.90;;;;;;494035;241;28800;-69
2022/08/16 06:24:20;;;;;;;6.23;5.03;;;17.30;99.90;;;;;;494024;241;28861;-70
2022/08/16 06:26:21;;;;;;;5.40;4.90;;;17.30;99.90;;;;;;493982;241;28952;-69
2022/08/16 06:28:22;;;;;;;6.00;5.50;;;17.40;99.90;;;;;;494057;241;28824;-70
2022/08/16 06:30:24;;;;;;;5.63;5.23;;;17.40;99.90;;;;;;494023;241;28854;-71
2022/08/16 06:32:25;;;;;;;5.27;4.87;;;17.40;99.90;;;;;;494056;241;28895;-69
2022/08/16 06:34:26;;;;;;;6.40;5.90;;;17.40;99.90;;;;;;494033;241;28885;-70
2022/08/16 06:36:28;;;;;;;6.13;5.63;;;17.40;99.90;;;;;;493887;241;28839;-69
2022/08/16 06:38:29;;;;;;;5.70;5.10;;;17.40;99.90;;;;;;494026;241;29261;-71
2022/08/16 06:40:30;;;;;;;4.97;4.60;;;17.40;99.90;;;;;;494067;241;29456;-72
2022/08/16 06:42:31;;;;;;;5.37;4.97;;;17.50;99.90;;;;;;494069;241;29375;-70
2022/08/16 06:44:32;;;;;;;6.63;5.93;;;17.50;99.90;;;;;;494080;241;28852;-70
2022/08/16 06:46:35;;;;;;;5.30;4.90;;;17.60;99.90;;;;;;493976;241;28957;-69
2022/08/16 06:48:35;;;;;;;6.03;5.53;;;17.70;99.90;;;;;;494010;241;28895;-69
2022/08/16 06:50:36;;;;;;;6.27;5.77;;;17.70;99.90;;;;;;494076;241;28850;-72
2022/08/16 06:52:38;;;;;;;5.53;5.10;;;17.70;99.90;;;;;;494047;241;28842;-69
2022/08/16 06:54:39;;;;;;;5.23;4.83;;;17.80;99.90;;;;;;494014;241;28962;-70
2022/08/16 06:56:41;;;;;;;5.80;5.30;;;17.80;99.90;;;;;;493943;241;28935;-70
2022/08/16 06:58:41;;;;;;;6.27;5.77;;;17.80;99.90;;;;;;493988;241;28819;-69
2022/08/16 07:00:42;;;;;;;6.67;6.10;;;17.90;99.90;;;;;;494058;241;28853;-71
2022/08/16 07:02:44;;;;;;;6.20;5.60;;;18.00;99.90;;;;;;494051;241;29256;-70
2022/08/16 07:04:45;;;;;;;5.90;5.50;;;18.00;99.90;;;;;;494039;241;29467;-70
2022/08/16 07:06:46;;;;;;;7.30;6.70;;;18.10;99.90;;;;;;493953;241;29258;-69
2022/08/16 07:08:47;;;;;;;6.77;6.17;;;18.20;99.90;;;;;;494045;241;29292;-70
2022/08/16 07:10:49;;;;;;;6.60;6.00;;;18.20;99.90;;;;;;494057;241;28842;-73
2022/08/16 07:12:50;;;;;;;6.80;6.20;;;18.20;99.90;;;;;;494054;241;28846;-69
2022/08/16 07:14:51;;;;;;;8.73;6.67;;;18.20;99.90;;;;;;494040;241;28927;-71
2022/08/16 07:16:52;;;;;;;6.50;5.93;;;18.20;99.90;;;;;;494010;241;28793;-70
2022/08/16 07:18:56;;;;;;;6.50;5.93;;;18.20;99.90;;;;;;494046;241;28829;-70
2022/08/16 07:20:57;;;;;;;6.40;5.90;;;18.20;99.90;;;;;;493848;241;28939;-72
2022/08/16 07:22:56;;;;;;;6.80;6.10;;;18.30;99.90;;;;;;493878;241;28814;-70
2022/08/16 07:24:57;;;;;;;6.83;5.53;;;18.20;99.90;;;;;;494044;241;28845;-70
2022/08/16 07:26:59;;;;;;;6.07;5.47;;;18.20;99.90;;;;;;493985;241;28815;-69
2022/08/16 07:29:00;;;;;;;6.63;6.03;;;18.20;99.90;;;;;;494031;241;29316;-70
2022/08/16 07:31:02;;;;;;;6.80;6.10;;;18.30;99.90;;;;;;494026;241;29432;-73
2022/08/16 07:33:04;;;;;;;6.30;5.70;;;18.40;99.90;;;;;;494040;241;29360;-69
2022/08/16 07:35:04;;;;;;;6.50;5.90;;;18.50;99.90;;;;;;493893;241;28868;-70
2022/08/16 07:37:05;;;;;;;5.90;5.40;;;18.60;99.90;;;;;;493861;241;28816;-69
2022/08/16 07:39:07;;;;;;;6.80;6.20;;;18.50;99.90;;;;;;494026;241;28842;-70
2022/08/16 07:41:08;;;;;;;6.50;5.90;;;18.40;99.90;;;;;;494024;241;28864;-73
2022/08/16 07:43:09;;;;;;;6.80;6.20;;;18.50;99.90;;;;;;494041;241;28810;-69
2022/08/16 07:45:10;;;;;;;5.77;5.27;;;18.40;99.90;;;;;;494037;241;28875;-70
2022/08/16 07:47:11;;;;;;;6.13;5.63;;;18.50;99.90;;;;;;493993;241;28807;-69
2022/08/16 07:49:13;;;;;;;7.30;6.27;;;18.70;99.90;;;;;;494014;241;28856;-69
2022/08/16 07:51:14;;;;;;;7.63;6.60;;;18.70;99.90;;;;;;494025;241;29398;-73
2022/08/16 07:53:15;;;;;;;6.30;5.80;;;18.70;99.90;;;;;;494054;241;29278;-70
2022/08/16 07:55:17;;;;;;;6.63;6.03;;;18.80;99.90;;;;;;494050;241;29358;-71
2022/08/16 07:57:18;;;;;;;6.43;5.83;;;18.80;99.90;;;;;;493980;241;28952;-69
2022/08/16 07:59:19;;;;;;;6.83;6.30;;;18.90;99.90;;;;;;494046;241;28853;-70
2022/08/16 08:01:21;;;;;;;8.07;7.27;;;19.10;99.90;;;;;;494056;241;28857;-70
2022/08/16 08:03:21;;;;;;;7.40;6.70;;;19.20;99.90;;;;;;493988;241;28815;-69
2022/08/16 08:05:23;;;;;;;6.37;5.77;;;19.40;99.90;;;;;;494038;241;28945;-72
2022/08/16 08:07:24;;;;;;;7.80;7.10;;;19.40;99.90;;;;;;493944;241;28814;-69
2022/08/16 08:09:25;;;;;;;6.03;5.53;;;19.40;99.90;;;;;;494021;241;28847;-70
2022/08/16 08:11:26;;;;;;;6.83;6.23;;;19.30;99.90;;;;;;494057;237;28951;-72
2022/08/16 08:13:29;;;;;;;7.20;6.60;;;19.30;99.90;;;;;;494067;241;29219;-69
2022/08/16 08:15:29;;;;;;;6.23;5.73;;;19.20;99.90;;;;;;493978;241;29346;-71
2022/08/16 08:17:30;;;;;;;6.60;6.00;;;19.20;99.90;;;;;;493958;241;29411;-69
2022/08/16 08:19:31;;;;;;;6.60;6.10;;;19.10;99.90;;;;;;494038;241;29439;-70
2022/08/16 08:21:33;;;;;;;5.97;5.53;;;19.10;99.90;;;;;;494016;241;28909;-69
2022/08/16 08:23:37;;;;;;;6.40;5.90;;;19.10;99.90;;;;;;494034;241;28804;-69
2022/08/16 08:25:35;;;;;;;6.67;6.10;;;19.20;99.90;;;;;;493787;241;28839;-71
2022/08/16 08:27:36;;;;;;;8.93;6.53;;;19.30;99.90;;;;;;494011;241;28854;-69
2022/08/16 08:29:38;;;;;;;6.93;6.33;;;19.40;99.90;;;;;;494056;241;28862;-70
2022/08/16 08:31:41;;;;;;;7.50;6.80;;;19.40;99.90;;;;;;494053;241;28874;-69
2022/08/16 08:33:40;;;;;;;6.70;6.10;;;19.60;99.90;;;;;;493918;241;28871;-70
2022/08/16 08:35:41;;;;;;;7.33;6.73;;;19.70;99.90;;;;;;493932;241;28867;-71
2022/08/16 08:37:43;;;;;;;7.70;6.80;;;19.80;99.90;;;;;;493977;241;28949;-70
2022/08/16 08:39:44;;;;;;;7.63;6.90;;;19.90;99.90;;;;;;494023;241;29380;-69
2022/08/16 08:41:46;;;;;;;7.70;7.00;;;20.00;99.90;;;;;;493978;241;30060;-69
2022/08/16 08:43:46;;;;;;;7.57;6.90;;;20.20;99.90;;;;;;494006;241;29379;-70
2022/08/16 08:45:48;;;;;;;6.90;6.40;;;20.30;99.90;;;;;;494040;241;28971;-71
2022/08/16 08:47:49;;;;;;;7.93;7.23;;;20.40;99.90;;;;;;493974;241;28902;-70
2022/08/16 08:49:50;;;;;;;7.93;7.20;;;20.50;99.90;;;;;;494028;241;28933;-70
2022/08/16 08:51:51;;;;;;;7.80;7.13;;;20.60;99.90;;;;;;494013;241;28821;-69
2022/08/16 08:53:53;;;;;;;12.50;7.40;;;20.50;99.90;;;;;;494041;241;28808;-69
2022/08/16 08:55:54;;;;;;;7.50;6.90;;;20.40;99.90;;;;;;494005;237;28964;-71
2022/08/16 08:57:55;;;;;;;7.40;6.80;;;20.50;99.90;;;;;;493961;241;28817;-69
2022/08/16 08:59:56;;;;;;;7.70;7.00;;;20.60;99.90;;;;;;494036;241;28849;-71
2022/08/16 09:01:58;;;;;;;6.33;5.73;;;20.70;99.90;;;;;;494045;241;28792;-69
2022/08/16 09:03:59;;;;;;;6.70;6.10;;;20.70;99.90;;;;;;494027;241;29357;-70
2022/08/16 09:06:00;;;;;;;7.50;6.80;;;20.70;99.90;;;;;;494005;241;29322;-71
2022/08/16 09:08:01;;;;;;;7.17;6.57;;;20.70;99.90;;;;;;494026;241;29371;-69
2022/08/16 09:10:03;;;;;;;7.60;6.50;;;20.80;99.90;;;;;;494071;241;28838;-70
2022/08/16 09:12:04;;;;;;;8.00;7.20;;;20.90;99.90;;;;;;494042;241;28906;-70
2022/08/16 09:14:05;;;;;;;7.23;6.63;;;21.00;99.90;;;;;;494064;241;28804;-70
2022/08/16 09:16:06;;;;;;;7.10;6.40;;;21.10;99.90;;;;;;493999;241;29043;-75
2022/08/16 09:18:08;;;;;;;6.80;6.17;;;21.20;99.90;;;;;;494035;241;28882;-70
2022/08/16 09:20:09;;;;;;;6.90;6.20;;;21.30;99.90;;;;;;494033;241;28854;-70
2022/08/16 09:22:10;;;;;;;6.90;6.30;;;21.50;99.90;;;;;;494040;241;28940;-69
2022/08/16 09:24:11;;;;;;;7.43;6.63;;;21.70;99.90;;;;;;493988;241;28917;-70
2022/08/16 09:26:14;;;;;;;6.83;6.00;;;21.80;99.90;;;;;;493960;241;28945;-71
2022/08/16 09:28:14;;;;;;;8.00;6.40;;;21.80;99.90;;;;;;492148;241;47606;-69
2022/08/16 09:30:16;;;;;;;7.70;7.10;;;21.80;99.90;;;;;;493989;241;28033;-69
2022/08/16 09:32:17;;;;;;;6.67;6.07;;;21.80;99.90;;;;;;493963;241;30059;-70
2022/08/16 09:34:18;;;;;;;6.60;6.00;;;21.70;99.90;;;;;;494017;241;28799;-70
2022/08/16 09:36:19;;;;;;;7.27;6.67;;;21.60;99.90;;;;;;493852;241;28865;-71
2022/08/16 09:38:21;;;;;;;7.80;5.90;;;21.60;99.90;;;;;;494040;241;28858;-69
2022/08/16 09:40:21;;;;;;;7.47;6.47;;;21.70;99.90;;;;;;493989;241;28853;-69
2022/08/16 09:42:23;;;;;;;6.07;5.57;;;21.60;99.90;;;;;;494021;241;28839;-70
2022/08/16 09:44:24;;;;;;;6.10;5.63;;;21.60;99.90;;;;;;494018;241;28809;-70
2022/08/16 09:46:26;;;;;;;6.40;5.70;;;21.70;99.90;;;;;;493932;241;28856;-73
2022/08/16 09:48:27;;;;;;;6.40;5.90;;;21.70;99.90;;;;;;493992;241;28795;-70
2022/08/16 09:50:30;;;;;;;6.90;6.30;;;21.70;99.90;;;;;;494027;241;28833;-71
2022/08/16 09:52:29;;;;;;;6.27;5.73;;;21.60;99.90;;;;;;493880;241;30367;-69
2022/08/16 09:54:30;;;;;;;6.37;5.77;;;21.70;99.90;;;;;;494068;241;30217;-70
2022/08/16 09:56:31;;;;;;;5.97;5.50;;;21.70;99.90;;;;;;493969;241;29351;-71
2022/08/16 09:58:33;;;;;;;5.87;5.37;;;21.90;99.90;;;;;;494057;241;28808;-69
2022/08/16 10:00:34;;;;;;;6.13;5.57;;;22.10;99.90;;;;;;494045;241;28828;-71
2022/08/16 10:02:36;;;;;;;6.73;6.10;;;22.30;99.90;;;;;;494037;241;28929;-73
2022/08/16 10:04:36;;;;;;;5.87;5.37;;;22.60;99.90;;;;;;494008;241;28819;-70
2022/08/16 10:06:38;;;;;;;8.73;5.87;;;22.80;99.90;;;;;;494003;241;28860;-72
2022/08/16 10:08:39;;;;;;;5.93;5.33;;;22.90;99.90;;;;;;494048;241;28811;-70
2022/08/16 10:10:40;;;;;;;5.40;5.00;;;23.00;99.90;;;;;;494059;241;28965;-71
2022/08/16 10:15:01;;;;;;;4.93;4.53;;;22.80;99.90;;;;;;494064;241;29345;-70
2022/08/16 10:17:02;;;;;;;5.60;5.20;;;22.90;99.90;;;;;;493962;241;29317;-70
2022/08/16 10:19:03;;;;;;;5.30;4.90;;;22.90;99.90;;;;;;494031;241;29256;-70
2022/08/16 10:21:05;;;;;;;8.83;5.50;;;23.00;99.90;;;;;;494046;241;29346;-70
2022/08/16 10:23:06;;;;;;;6.37;5.87;;;23.00;99.90;;;;;;494057;241;28839;-75
2022/08/16 10:25:07;;;;;;;5.40;4.90;;;23.10;99.90;;;;;;494067;241;28797;-70
2022/08/16 10:27:09;;;;;;;8.30;5.30;;;23.10;99.90;;;;;;493989;241;28849;-70
2022/08/16 10:29:10;;;;;;;5.50;5.07;;;23.10;99.90;;;;;;494013;241;28825;-70
2022/08/16 10:31:11;;;;;;;5.20;4.80;;;23.10;99.90;;;;;;494059;241;28908;-70
2022/08/16 10:33:12;;;;;;;5.60;5.10;;;23.20;99.90;;;;;;493986;241;28849;-73